X  SluitMETAR luchtvaart weer gegevens      EBBR Brussels Airport

Temperatuur

4°C Temperatuur

0°C Dauwpunt

75% Vochtigheid



Wind

14 KM/U

 9 MPH

 4 M/S

 8 KTS



180°
Het Zuiden
Huidig weer

Grotendeels bewolkt Grotendeels bewolkt
Luchtdruk 995.92 (hPa) - 29.41 (in)
Zicht 6.2 (mi) - 10 (km)
Vliegveld
Vliegveld code EBBR

Locatie Brussels Airport 10 (km)

Metar:
EBBR 050950Z 18008KT 9999 BKN022 04/00 Q0996 NOSIG

Tijd: 05-12-2020 10:50